createdAt,value
2019-05-20T00:00:22.322Z,518
2019-05-20T00:01:29.570Z,517
2019-05-20T00:02:36.772Z,516
2019-05-20T00:03:43.985Z,518
2019-05-20T00:04:50.642Z,517
2019-05-20T00:05:57.900Z,517
2019-05-20T00:07:05.102Z,516
2019-05-20T00:08:12.314Z,517
2019-05-20T00:09:19.523Z,517
2019-05-20T00:10:26.731Z,517
2019-05-20T00:11:33.940Z,518
2019-05-20T00:12:41.182Z,518
2019-05-20T00:13:48.383Z,517
2019-05-20T00:14:55.042Z,518
2019-05-20T00:16:02.253Z,518
2019-05-20T00:17:09.460Z,518
2019-05-20T00:18:16.894Z,518
2019-05-20T00:19:24.083Z,518
2019-05-20T00:20:31.333Z,519
2019-05-20T00:21:38.538Z,518
2019-05-20T00:22:45.950Z,518
2019-05-20T00:23:53.157Z,518
2019-05-20T00:25:00.365Z,518
2019-05-20T00:26:07.338Z,518
2019-05-20T00:27:14.527Z,518
2019-05-20T00:28:21.476Z,518
2019-05-20T00:29:28.677Z,518
2019-05-20T00:30:35.889Z,518
2019-05-20T00:31:43.094Z,518
2019-05-20T00:32:50.298Z,517
2019-05-20T00:33:57.509Z,517
2019-05-20T00:35:04.738Z,517
2019-05-20T00:36:11.932Z,517
2019-05-20T00:37:19.136Z,517
2019-05-20T00:38:26.342Z,516
2019-05-20T00:39:33.008Z,515
2019-05-20T00:40:39.941Z,516
2019-05-20T00:41:47.145Z,516
2019-05-20T00:42:54.354Z,516
2019-05-20T00:44:01.296Z,516
2019-05-20T00:45:08.516Z,516
2019-05-20T00:46:15.720Z,516
2019-05-20T00:47:22.677Z,516
2019-05-20T00:48:29.888Z,517
2019-05-20T00:49:37.088Z,517
2019-05-20T00:50:44.295Z,517
2019-05-20T00:51:51.513Z,517
2019-05-20T00:52:58.722Z,517
2019-05-20T00:54:06.252Z,517
2019-05-20T00:55:13.440Z,517
2019-05-20T00:56:20.641Z,516
2019-05-20T00:57:27.880Z,517
2019-05-20T00:58:35.087Z,516
2019-05-20T00:59:42.033Z,516
2019-05-20T01:00:49.232Z,517
2019-05-20T01:01:56.446Z,516
2019-05-20T01:03:03.654Z,517
2019-05-20T01:04:10.587Z,517
2019-05-20T01:05:16.977Z,517
2019-05-20T01:06:24.180Z,517
2019-05-20T01:07:31.115Z,517
2019-05-20T01:08:38.318Z,517
2019-05-20T01:09:45.528Z,517
2019-05-20T01:10:52.751Z,518
2019-05-20T01:11:59.975Z,518
2019-05-20T01:13:07.175Z,517
2019-05-20T01:14:14.381Z,516
2019-05-20T01:15:21.586Z,517
2019-05-20T01:16:28.790Z,517
2019-05-20T01:17:36.001Z,517
2019-05-20T01:18:43.214Z,517
2019-05-20T01:19:50.458Z,517
2019-05-20T01:20:57.670Z,517
2019-05-20T01:22:04.902Z,517
2019-05-20T01:23:12.095Z,518
2019-05-20T01:24:19.311Z,517
2019-05-20T01:25:26.244Z,517
2019-05-20T01:26:33.458Z,517
2019-05-20T01:27:40.660Z,516
2019-05-20T01:28:47.874Z,516
2019-05-20T01:29:54.534Z,516
2019-05-20T01:31:01.465Z,516
2019-05-20T01:32:08.395Z,516
2019-05-20T01:33:15.447Z,515
2019-05-20T01:34:22.657Z,516
2019-05-20T01:35:29.858Z,513
2019-05-20T01:36:37.061Z,513
2019-05-20T01:37:43.994Z,512
2019-05-20T01:38:51.193Z,512
2019-05-20T01:39:58.399Z,512
2019-05-20T01:41:05.596Z,512
2019-05-20T01:42:12.799Z,512
2019-05-20T01:43:20.001Z,512
2019-05-20T01:44:27.199Z,511
2019-05-20T01:45:34.427Z,512
2019-05-20T01:46:41.364Z,512
2019-05-20T01:47:48.562Z,511
2019-05-20T01:48:55.485Z,510
2019-05-20T01:50:02.687Z,510
2019-05-20T01:51:09.897Z,511
2019-05-20T01:52:17.093Z,510
2019-05-20T01:53:24.040Z,511
2019-05-20T01:54:30.946Z,511
2019-05-20T01:55:38.183Z,510
2019-05-20T01:56:45.995Z,512
2019-05-20T01:57:52.928Z,510
2019-05-20T01:59:00.141Z,511
2019-05-20T02:00:07.349Z,511
2019-05-20T02:01:14.574Z,511
2019-05-20T02:02:21.784Z,511
2019-05-20T02:03:32.593Z,512
2019-05-20T02:04:39.834Z,512
2019-05-20T02:05:46.765Z,512
2019-05-20T02:06:53.979Z,513
2019-05-20T02:08:01.267Z,513
2019-05-20T02:09:08.462Z,513
2019-05-20T02:10:15.670Z,513
2019-05-20T02:11:22.601Z,513
2019-05-20T02:12:29.807Z,512
2019-05-20T02:13:37.019Z,513
2019-05-20T02:14:44.226Z,512
2019-05-20T02:15:51.438Z,512
2019-05-20T02:16:58.379Z,512
2019-05-20T02:18:09.063Z,512
2019-05-20T02:19:16.019Z,512
2019-05-20T02:20:23.223Z,512
2019-05-20T02:21:30.446Z,512
2019-05-20T02:22:37.379Z,512
2019-05-20T02:23:44.308Z,511
2019-05-20T02:24:51.611Z,513
2019-05-20T02:25:58.548Z,512
2019-05-20T02:27:05.750Z,512
2019-05-20T02:28:12.970Z,511
2019-05-20T02:29:34.832Z,512
2019-05-20T02:30:41.759Z,511
2019-05-20T02:31:48.968Z,511
2019-05-20T02:32:56.173Z,511
2019-05-20T02:34:03.372Z,511
2019-05-20T02:35:10.589Z,512
2019-05-20T02:36:17.828Z,512
2019-05-20T02:37:24.758Z,512
2019-05-20T02:38:31.969Z,512
2019-05-20T02:39:39.172Z,512
2019-05-20T02:40:46.096Z,512
2019-05-20T02:41:53.300Z,512
2019-05-20T02:43:00.507Z,512
2019-05-20T02:44:07.724Z,512
2019-05-20T02:45:14.928Z,512
2019-05-20T02:46:22.183Z,512
2019-05-20T02:47:29.393Z,513
2019-05-20T02:48:36.613Z,512
2019-05-20T02:49:43.822Z,514
2019-05-20T02:50:51.023Z,513
2019-05-20T02:51:58.226Z,514
2019-05-20T02:53:05.431Z,513
2019-05-20T02:54:12.371Z,513
2019-05-20T02:55:19.625Z,514
2019-05-20T02:56:26.839Z,513
2019-05-20T02:57:34.047Z,514
2019-05-20T02:58:41.255Z,514
2019-05-20T02:59:48.189Z,514
2019-05-20T03:00:55.393Z,514
2019-05-20T03:02:02.622Z,514
2019-05-20T03:03:09.628Z,514
2019-05-20T03:04:16.834Z,513
2019-05-20T03:05:23.760Z,513
2019-05-20T03:06:30.692Z,513
2019-05-20T03:07:37.896Z,513
2019-05-20T03:08:45.107Z,512
2019-05-20T03:09:52.038Z,512
2019-05-20T03:10:58.968Z,512
2019-05-20T03:12:05.896Z,512
2019-05-20T03:13:13.147Z,512
2019-05-20T03:14:20.077Z,512
2019-05-20T03:15:27.286Z,512
2019-05-20T03:16:34.516Z,512
2019-05-20T03:17:41.722Z,512
2019-05-20T03:18:48.924Z,512
2019-05-20T03:19:55.852Z,511
2019-05-20T03:21:03.062Z,512
2019-05-20T03:22:10.262Z,511
2019-05-20T03:23:17.466Z,511
2019-05-20T03:24:24.669Z,511
2019-05-20T03:25:31.871Z,511
2019-05-20T03:26:39.079Z,511
2019-05-20T03:27:46.279Z,512
2019-05-20T03:28:53.238Z,512
2019-05-20T03:30:00.442Z,512
2019-05-20T03:31:07.382Z,511
2019-05-20T03:32:14.623Z,511
2019-05-20T03:33:21.571Z,511
2019-05-20T03:35:01.054Z,511
2019-05-20T03:36:08.975Z,510
2019-05-20T03:37:16.252Z,511
2019-05-20T03:38:23.174Z,510
2019-05-20T03:39:30.112Z,511
2019-05-20T03:40:37.330Z,511
2019-05-20T22:00:06.816Z,557
2019-05-20T22:01:14.028Z,567
2019-05-20T22:02:21.229Z,572
2019-05-20T22:03:28.435Z,570
2019-05-20T22:04:35.361Z,573
2019-05-20T22:05:42.569Z,574
2019-05-20T22:06:49.508Z,569
2019-05-20T22:07:56.701Z,573
2019-05-20T22:09:03.906Z,571
2019-05-20T22:10:11.121Z,568
2019-05-20T22:11:18.343Z,563
2019-05-20T22:12:25.546Z,562
2019-05-20T22:13:32.759Z,565
2019-05-20T22:14:39.702Z,560
2019-05-20T22:15:46.943Z,560
2019-05-20T22:16:54.161Z,560
2019-05-20T22:18:01.413Z,561
2019-05-20T22:19:08.630Z,560
2019-05-20T22:20:15.835Z,559
2019-05-20T22:21:23.043Z,559
2019-05-20T22:22:29.979Z,562
2019-05-20T22:23:37.189Z,560
2019-05-20T22:24:44.402Z,559
2019-05-20T22:25:51.644Z,560
2019-05-20T22:26:58.850Z,558
2019-05-20T22:28:06.058Z,557
2019-05-20T22:29:13.258Z,558
2019-05-20T22:30:20.191Z,564
2019-05-20T22:31:27.441Z,562
2019-05-20T22:32:34.648Z,560
2019-05-20T22:33:43.723Z,559
2019-05-20T22:34:54.770Z,555
2019-05-20T22:36:01.422Z,555
2019-05-20T22:37:08.623Z,548
2019-05-20T22:38:15.828Z,547
2019-05-20T22:39:23.038Z,550
2019-05-20T22:40:29.981Z,551
2019-05-20T22:41:37.206Z,553
2019-05-20T22:42:44.411Z,552
2019-05-20T22:43:51.888Z,551
2019-05-20T22:44:58.833Z,550
2019-05-20T22:46:06.043Z,554
2019-05-20T22:47:13.248Z,552
2019-05-20T22:48:20.447Z,551
2019-05-20T22:49:27.386Z,551
2019-05-20T22:50:34.317Z,552
2019-05-20T22:51:41.532Z,551
2019-05-20T22:52:48.466Z,551
2019-05-20T22:53:55.674Z,552
2019-05-20T22:55:02.922Z,551
2019-05-20T22:56:10.117Z,553
2019-05-20T22:57:17.324Z,552
2019-05-20T22:58:24.568Z,550
2019-05-20T22:59:31.771Z,553
2019-05-20T23:00:38.978Z,554
2019-05-20T23:01:46.225Z,554
2019-05-20T23:02:53.432Z,551
2019-05-20T23:04:00.667Z,552
2019-05-20T23:05:07.877Z,555
2019-05-20T23:06:15.082Z,553
2019-05-20T23:07:22.287Z,554
2019-05-20T23:08:29.496Z,551
2019-05-20T23:09:36.442Z,550
2019-05-20T23:10:43.646Z,550
2019-05-20T23:11:50.854Z,551
2019-05-20T23:12:58.057Z,550
2019-05-20T23:14:05.499Z,552
2019-05-20T23:15:12.714Z,549
2019-05-20T23:16:19.643Z,552
2019-05-20T23:17:26.571Z,550
2019-05-20T23:18:33.505Z,551
2019-05-20T23:19:40.447Z,551
2019-05-20T23:20:47.661Z,553
2019-05-20T23:21:54.864Z,551
2019-05-20T23:23:02.077Z,552
2019-05-20T23:24:09.020Z,550
2019-05-20T23:25:16.238Z,550
2019-05-20T23:26:23.430Z,551
2019-05-20T23:27:30.638Z,550
2019-05-20T23:28:37.871Z,552
2019-05-20T23:29:45.115Z,551
2019-05-20T23:30:52.326Z,551
2019-05-20T23:31:59.592Z,551
2019-05-20T23:33:06.544Z,553
2019-05-20T23:34:14.407Z,551
2019-05-20T23:35:21.619Z,551
2019-05-20T23:36:28.825Z,550
2019-05-20T23:37:36.032Z,551
2019-05-20T23:38:43.238Z,551
2019-05-20T23:39:50.455Z,553
2019-05-20T23:40:57.389Z,552
2019-05-20T23:42:04.339Z,552
2019-05-20T23:43:11.540Z,548
2019-05-20T23:44:18.747Z,551
2019-05-20T23:45:25.699Z,551
2019-05-20T23:46:32.908Z,550
2019-05-20T23:47:39.867Z,552
2019-05-20T23:48:46.790Z,551
2019-05-20T23:49:53.999Z,550
2019-05-20T23:51:00.656Z,550
2019-05-20T23:52:07.866Z,552
2019-05-20T23:53:15.074Z,549
2019-05-20T23:54:22.308Z,551
2019-05-20T23:55:29.524Z,551
2019-05-20T23:56:36.729Z,551
2019-05-20T23:57:43.690Z,552
2019-05-20T23:58:50.893Z,551
2019-05-20T23:59:58.101Z,551
